createdAt,value
2023-01-29T00:02:08.779Z,63.79
2023-01-29T00:07:11.891Z,63.03
2023-01-29T00:12:15.027Z,63.75
2023-01-29T00:17:18.167Z,63.67
2023-01-29T00:22:21.245Z,63.02
2023-01-29T00:27:24.353Z,63.31
2023-01-29T00:32:27.402Z,62.56
2023-01-29T00:37:30.614Z,62.85
2023-01-29T00:42:52.166Z,62.55
2023-01-29T00:47:55.172Z,62.76
2023-01-29T00:58:34.536Z,63.36
2023-01-29T01:03:42.460Z,63.63
2023-01-29T01:09:03.791Z,63.41
2023-01-29T01:14:08.162Z,63.46
2023-01-29T01:19:11.612Z,62.75
2023-01-29T01:24:15.188Z,63.73
2023-01-29T01:29:19.633Z,63.06
2023-01-29T01:34:28.799Z,63.01
2023-01-29T01:39:31.909Z,63.44
2023-01-29T01:45:05.295Z,63.34
2023-01-29T01:50:19.379Z,63.25
2023-01-29T01:55:28.365Z,63.67
2023-01-29T02:00:31.381Z,63.36
2023-01-29T02:05:56.008Z,63.43
2023-01-29T02:10:59.262Z,63.21
2023-01-29T02:16:02.560Z,62.77
2023-01-29T02:21:43.088Z,63.25
2023-01-29T02:27:08.488Z,63.93
2023-01-29T02:32:30.000Z,63.37
2023-01-29T02:37:40.290Z,62.91
2023-01-29T02:43:22.930Z,63.20
2023-01-29T02:48:29.881Z,63.95
2023-01-29T02:53:50.824Z,64.37
2023-01-29T02:59:07.332Z,63.07
2023-01-29T03:04:17.417Z,63.39
2023-01-29T03:09:30.451Z,63.48
2023-01-29T03:14:58.387Z,63.62
2023-01-29T03:20:18.258Z,63.54
2023-01-29T03:25:47.792Z,63.09
2023-01-29T03:31:14.970Z,63.66
2023-01-29T03:37:08.043Z,63.44
2023-01-29T03:42:23.823Z,63.58
2023-01-29T03:47:45.599Z,63.69
2023-01-29T03:53:22.339Z,63.42
2023-01-29T03:58:47.359Z,63.83
2023-01-29T04:04:02.164Z,63.55
2023-01-29T04:09:27.500Z,63.60
2023-01-29T04:14:33.372Z,64.18
2023-01-29T04:19:38.319Z,64.29
2023-01-29T04:24:43.062Z,64.95
2023-01-29T04:29:46.645Z,64.58
2023-01-29T04:35:30.063Z,64.49
2023-01-29T04:40:44.494Z,64.09
2023-01-29T04:46:24.870Z,64.56
2023-01-29T04:51:48.824Z,64.16
2023-01-29T04:57:03.149Z,64.49
2023-01-29T05:02:10.374Z,63.97
2023-01-29T05:07:15.742Z,64.50
2023-01-29T05:12:19.409Z,63.81
2023-01-29T05:17:22.579Z,64.00
2023-01-29T05:22:27.017Z,63.96
2023-01-29T05:27:53.641Z,63.85
2023-01-29T05:32:56.657Z,62.76
2023-01-29T05:37:59.697Z,62.73
2023-01-29T05:43:02.772Z,62.56
2023-01-29T05:48:06.042Z,62.87
2023-01-29T05:53:09.817Z,62.01
2023-01-29T05:58:13.267Z,62.02
2023-01-29T06:03:16.439Z,62.03
2023-01-29T06:08:19.548Z,61.50
2023-01-29T06:13:23.702Z,62.89
2023-01-29T06:18:27.026Z,61.94
2023-01-29T06:23:30.433Z,62.09
2023-01-29T06:28:33.671Z,62.41
2023-01-29T06:33:36.658Z,61.59
2023-01-29T06:38:39.625Z,61.60
2023-01-29T06:43:45.008Z,61.11
2023-01-29T06:48:48.137Z,60.34
2023-01-29T06:53:51.244Z,60.21
2023-01-29T06:58:55.493Z,59.77
2023-01-29T07:03:58.505Z,58.87
2023-01-29T07:09:01.707Z,58.50
2023-01-29T07:14:05.043Z,58.58
2023-01-29T07:19:08.185Z,57.96
2023-01-29T07:24:11.416Z,56.83
2023-01-29T07:29:14.461Z,56.16
2023-01-29T07:34:17.531Z,56.08
2023-01-29T07:39:20.580Z,55.49
2023-01-29T07:44:23.710Z,55.13
2023-01-29T07:49:26.853Z,55.07
2023-01-29T07:54:29.894Z,54.09
2023-01-29T07:59:33.014Z,53.54
2023-01-29T08:04:36.102Z,53.47
2023-01-29T08:09:39.209Z,52.57
2023-01-29T08:14:42.297Z,54.08
2023-01-29T08:25:08.305Z,52.52
2023-01-29T08:30:12.602Z,52.25
2023-01-29T08:35:15.660Z,52.02
2023-01-29T08:40:19.040Z,52.76
2023-01-29T08:45:22.283Z,53.35
2023-01-29T08:50:25.500Z,52.20
2023-01-29T08:55:29.100Z,51.97
2023-01-29T09:00:33.469Z,52.22
2023-01-29T09:05:40.909Z,52.75
2023-01-29T09:10:43.944Z,52.13
2023-01-29T09:15:46.971Z,51.88
2023-01-29T09:20:50.083Z,52.12
2023-01-29T09:25:53.116Z,52.25
2023-01-29T09:30:56.215Z,52.53
2023-01-29T09:35:59.340Z,52.72
2023-01-29T09:41:31.622Z,53.34
2023-01-29T09:46:41.525Z,53.10
2023-01-29T09:51:50.422Z,53.30
2023-01-29T09:56:57.404Z,52.69
2023-01-29T10:02:11.852Z,54.06
2023-01-29T10:07:35.355Z,53.31
2023-01-29T10:12:52.929Z,53.05
2023-01-29T10:18:10.830Z,53.25
2023-01-29T10:23:47.207Z,53.49
2023-01-29T10:28:55.854Z,53.97
2023-01-29T10:34:13.223Z,53.16
2023-01-29T10:39:23.186Z,53.32
2023-01-29T10:44:53.474Z,52.71
2023-01-29T10:56:23.680Z,53.86
2023-01-29T11:01:28.910Z,52.90
2023-01-29T11:06:34.536Z,53.25
2023-01-29T11:11:43.810Z,53.67
2023-01-29T11:16:49.921Z,53.61
2023-01-29T11:22:01.775Z,53.51
2023-01-29T11:27:15.755Z,53.04
2023-01-29T11:32:26.196Z,53.14
2023-01-29T11:37:40.231Z,53.25
2023-01-29T11:48:02.525Z,52.87
2023-01-29T11:53:07.323Z,53.04
2023-01-29T11:58:27.345Z,52.69
2023-01-29T12:03:41.942Z,52.64
2023-01-29T12:08:45.195Z,52.58
2023-01-29T12:13:56.019Z,52.73
2023-01-29T12:25:20.549Z,52.62
2023-01-29T12:30:45.056Z,52.65
2023-01-29T12:36:00.153Z,52.73
2023-01-29T12:41:21.991Z,52.62
2023-01-29T12:46:25.038Z,52.85
2023-01-29T12:51:38.118Z,52.85
2023-01-29T12:56:48.919Z,53.48
2023-01-29T13:01:57.083Z,53.13
2023-01-29T13:07:15.017Z,53.66
2023-01-29T13:12:21.158Z,54.28
2023-01-29T13:17:45.805Z,54.09
2023-01-29T13:22:50.830Z,54.57
2023-01-29T13:27:54.367Z,55.00
2023-01-29T13:33:10.231Z,55.86
2023-01-29T13:38:27.475Z,55.11
2023-01-29T13:43:36.992Z,55.76
2023-01-29T13:48:47.098Z,56.14
2023-01-29T13:54:04.680Z,56.13
2023-01-29T13:59:25.430Z,56.78
2023-01-29T14:04:31.563Z,56.43
2023-01-29T14:09:34.589Z,56.40
2023-01-29T14:14:49.589Z,56.98
2023-01-29T14:19:57.269Z,57.07
2023-01-29T14:25:06.335Z,56.79
2023-01-29T14:30:17.298Z,56.86
2023-01-29T14:35:30.841Z,57.14
2023-01-29T14:40:37.197Z,57.13
2023-01-29T14:45:44.948Z,57.46
2023-01-29T14:56:17.875Z,57.52
2023-01-29T15:07:12.861Z,58.32
2023-01-29T15:12:22.120Z,58.24
2023-01-29T15:17:46.052Z,59.24
2023-01-29T15:22:49.120Z,59.11
2023-01-29T15:27:53.328Z,59.47
2023-01-29T15:32:57.152Z,60.04
2023-01-29T15:38:19.727Z,59.55
2023-01-29T15:43:25.616Z,58.99
2023-01-29T15:48:36.404Z,59.91
2023-01-29T15:53:55.067Z,59.82
2023-01-29T15:59:01.358Z,60.85
2023-01-29T16:04:05.586Z,60.48
2023-01-29T16:09:10.700Z,60.87
2023-01-29T16:14:16.706Z,61.92
2023-01-29T16:19:28.986Z,61.79
2023-01-29T16:24:36.785Z,61.25
2023-01-29T16:29:40.139Z,62.21
2023-01-29T16:34:45.673Z,61.29
2023-01-29T16:39:50.878Z,62.46
2023-01-29T16:44:58.153Z,61.78
2023-01-29T16:50:05.105Z,62.55
2023-01-29T16:55:13.769Z,62.72
2023-01-29T17:00:26.304Z,62.19
2023-01-29T17:05:31.940Z,62.35
2023-01-29T17:10:36.374Z,62.53
2023-01-29T17:15:44.804Z,62.19
2023-01-29T17:20:48.655Z,63.31
2023-01-29T17:25:52.193Z,63.31
2023-01-29T17:31:05.755Z,63.29
2023-01-29T17:36:13.624Z,64.01
2023-01-29T17:41:25.403Z,63.00
2023-01-29T17:46:28.564Z,63.31
2023-01-29T17:51:31.646Z,62.84
2023-01-29T17:56:34.731Z,63.36
2023-01-29T18:01:37.773Z,63.58
2023-01-29T18:06:42.577Z,64.40
2023-01-29T18:11:45.631Z,64.96
2023-01-29T18:16:48.750Z,64.92
2023-01-29T18:21:52.787Z,64.04
2023-01-29T18:26:55.937Z,64.64
2023-01-29T18:31:59.061Z,64.59
2023-01-29T18:37:02.110Z,65.00
2023-01-29T18:42:05.259Z,65.24
2023-01-29T18:47:08.337Z,65.19
2023-01-29T18:52:11.491Z,64.95
2023-01-29T18:57:16.906Z,64.85
2023-01-29T19:08:06.659Z,65.52
2023-01-29T19:13:09.832Z,65.67
2023-01-29T19:18:14.756Z,65.51
2023-01-29T19:23:17.968Z,65.68
2023-01-29T19:28:21.024Z,65.87
2023-01-29T19:33:24.738Z,65.62
2023-01-29T19:38:28.250Z,65.84
2023-01-29T19:43:32.396Z,65.09
2023-01-29T19:48:35.622Z,64.98
2023-01-29T19:53:44.202Z,65.08
2023-01-29T19:58:47.842Z,64.53
2023-01-29T20:03:52.580Z,64.96
2023-01-29T20:08:55.688Z,64.44
2023-01-29T20:13:59.322Z,65.03
2023-01-29T20:19:14.309Z,65.18
2023-01-29T20:24:18.135Z,65.16
2023-01-29T20:29:21.265Z,64.93
2023-01-29T20:39:43.623Z,65.52
2023-01-29T20:44:46.633Z,65.50
2023-01-29T20:49:50.015Z,64.72
2023-01-29T20:54:54.177Z,64.87
2023-01-29T20:59:57.401Z,64.99
2023-01-29T21:05:00.512Z,64.92
2023-01-29T21:10:04.091Z,64.67
2023-01-29T21:15:07.764Z,64.88
2023-01-29T21:20:11.349Z,64.14
2023-01-29T21:25:14.936Z,64.54
2023-01-29T21:30:21.042Z,64.60
2023-01-29T21:35:24.239Z,64.66
2023-01-29T21:40:27.363Z,64.20
2023-01-29T21:45:30.457Z,64.85
2023-01-29T21:50:33.580Z,64.79
2023-01-29T21:55:36.601Z,64.47
2023-01-29T22:00:39.957Z,63.67
2023-01-29T22:05:43.216Z,64.16
2023-01-29T22:10:46.464Z,63.76
2023-01-29T22:15:49.591Z,64.36
2023-01-29T22:20:57.070Z,63.77
2023-01-29T22:26:04.723Z,63.79
2023-01-29T22:31:07.808Z,63.75
2023-01-29T22:36:13.029Z,63.25
2023-01-29T22:41:16.109Z,63.62
2023-01-29T22:46:19.057Z,63.58
2023-01-29T22:51:22.122Z,63.11
2023-01-29T22:56:31.383Z,63.24
2023-01-29T23:01:34.467Z,63.76
2023-01-29T23:06:37.639Z,63.07
2023-01-29T23:11:40.670Z,63.13
2023-01-29T23:16:43.830Z,63.23
2023-01-29T23:21:47.062Z,64.29
2023-01-29T23:32:26.317Z,64.25
2023-01-29T23:37:29.338Z,64.11
2023-01-29T23:42:32.347Z,64.01
2023-01-29T23:47:35.388Z,64.04
2023-01-29T23:52:39.208Z,63.58
2023-01-29T23:57:42.292Z,63.72
